sensor_id;sensor_type;location;lat;lon;timestamp;pressure;altitude;pressure_sealevel;temperature;humidity
11011;BME280;5558;42.702;23.178;2023-08-06T00:00:13;92605.78;;;18.75;100.00
11011;BME280;5558;42.702;23.178;2023-08-06T00:02:39;92611.91;;;18.87;100.00
11011;BME280;5558;42.702;23.178;2023-08-06T00:05:07;92633.97;;;18.69;100.00
11011;BME280;5558;42.702;23.178;2023-08-06T00:07:35;92656.16;;;18.81;100.00
11011;BME280;5558;42.702;23.178;2023-08-06T00:10:00;92658.22;;;18.24;100.00
11011;BME280;5558;42.702;23.178;2023-08-06T00:12:27;92659.09;;;17.92;100.00
11011;BME280;5558;42.702;23.178;2023-08-06T00:14:54;92671.47;;;18.08;100.00
11011;BME280;5558;42.702;23.178;2023-08-06T00:17:20;92678.19;;;18.14;100.00
11011;BME280;5558;42.702;23.178;2023-08-06T00:19:47;92681.97;;;18.25;100.00
11011;BME280;5558;42.702;23.178;2023-08-06T00:22:14;92694.56;;;17.89;100.00
11011;BME280;5558;42.702;23.178;2023-08-06T00:24:42;92699.63;;;17.58;100.00
11011;BME280;5558;42.702;23.178;2023-08-06T00:27:08;92719.00;;;17.55;100.00
11011;BME280;5558;42.702;23.178;2023-08-06T00:29:35;92713.13;;;17.41;100.00
11011;BME280;5558;42.702;23.178;2023-08-06T00:32:02;92720.31;;;17.49;100.00
11011;BME280;5558;42.702;23.178;2023-08-06T00:34:29;92725.41;;;17.42;100.00
11011;BME280;5558;42.702;23.178;2023-08-06T00:36:56;92733.72;;;17.61;100.00
11011;BME280;5558;42.702;23.178;2023-08-06T00:39:23;92735.53;;;17.57;100.00
11011;BME280;5558;42.702;23.178;2023-08-06T00:41:51;92735.44;;;17.65;100.00
11011;BME280;5558;42.702;23.178;2023-08-06T00:44:17;92737.41;;;17.56;100.00
11011;BME280;5558;42.702;23.178;2023-08-06T00:46:44;92725.03;;;17.31;100.00
11011;BME280;5558;42.702;23.178;2023-08-06T00:49:11;92731.22;;;17.23;100.00
11011;BME280;5558;42.702;23.178;2023-08-06T00:51:38;92742.50;;;17.29;100.00
11011;BME280;5558;42.702;23.178;2023-08-06T00:54:04;92738.41;;;17.52;100.00
11011;BME280;5558;42.702;23.178;2023-08-06T00:56:32;92723.75;;;17.70;100.00
11011;BME280;5558;42.702;23.178;2023-08-06T00:59:02;92707.63;;;17.58;100.00
11011;BME280;5558;42.702;23.178;2023-08-06T01:01:29;92714.97;;;17.49;100.00
11011;BME280;5558;42.702;23.178;2023-08-06T01:03:56;92708.78;;;17.36;100.00
11011;BME280;5558;42.702;23.178;2023-08-06T01:06:32;92700.41;;;17.38;100.00
11011;BME280;5558;42.702;23.178;2023-08-06T01:09:03;92687.44;;;17.48;100.00
11011;BME280;5558;42.702;23.178;2023-08-06T01:11:38;92679.03;;;17.17;100.00
11011;BME280;5558;42.702;23.178;2023-08-06T01:14:16;92690.59;;;17.09;100.00
11011;BME280;5558;42.702;23.178;2023-08-06T01:16:45;92701.97;;;17.39;100.00
11011;BME280;5558;42.702;23.178;2023-08-06T01:19:16;92701.19;;;17.59;100.00
11011;BME280;5558;42.702;23.178;2023-08-06T01:21:44;92706.56;;;17.71;100.00
11011;BME280;5558;42.702;23.178;2023-08-06T01:24:11;92680.53;;;17.59;100.00
11011;BME280;5558;42.702;23.178;2023-08-06T01:26:42;92666.75;;;17.69;100.00
11011;BME280;5558;42.702;23.178;2023-08-06T01:29:15;92674.25;;;17.88;100.00
11011;BME280;5558;42.702;23.178;2023-08-06T01:31:48;92666.00;;;17.93;100.00
11011;BME280;5558;42.702;23.178;2023-08-06T01:34:17;92657.06;;;17.77;100.00
11011;BME280;5558;42.702;23.178;2023-08-06T01:36:48;92660.97;;;17.91;100.00
11011;BME280;5558;42.702;23.178;2023-08-06T01:39:16;92650.06;;;18.08;100.00
11011;BME280;5558;42.702;23.178;2023-08-06T01:41:46;92640.47;;;18.07;100.00
11011;BME280;5558;42.702;23.178;2023-08-06T01:44:13;92651.50;;;17.94;100.00
11011;BME280;5558;42.702;23.178;2023-08-06T01:46:39;92671.94;;;17.98;100.00
11011;BME280;5558;42.702;23.178;2023-08-06T01:49:06;92674.59;;;17.98;100.00
11011;BME280;5558;42.702;23.178;2023-08-06T01:51:33;92669.81;;;17.92;100.00
11011;BME280;5558;42.702;23.178;2023-08-06T01:54:01;92656.28;;;17.88;100.00
11011;BME280;5558;42.702;23.178;2023-08-06T01:56:28;92647.47;;;17.88;100.00
11011;BME280;5558;42.702;23.178;2023-08-06T01:58:55;92649.28;;;17.96;100.00
11011;BME280;5558;42.702;23.178;2023-08-06T02:01:22;92662.13;;;18.02;100.00
11011;BME280;5558;42.702;23.178;2023-08-06T02:03:48;92645.16;;;18.10;100.00
11011;BME280;5558;42.702;23.178;2023-08-06T02:06:15;92632.09;;;18.21;100.00
11011;BME280;5558;42.702;23.178;2023-08-06T02:08:42;92615.56;;;18.31;100.00
11011;BME280;5558;42.702;23.178;2023-08-06T02:11:10;92613.88;;;18.39;100.00
11011;BME280;5558;42.702;23.178;2023-08-06T02:13:36;92607.09;;;18.41;100.00
11011;BME280;5558;42.702;23.178;2023-08-06T02:16:03;92603.41;;;18.46;100.00
11011;BME280;5558;42.702;23.178;2023-08-06T02:18:30;92607.75;;;18.38;100.00
11011;BME280;5558;42.702;23.178;2023-08-06T02:20:57;92620.16;;;18.31;100.00
11011;BME280;5558;42.702;23.178;2023-08-06T02:23:24;92643.56;;;18.21;100.00
11011;BME280;5558;42.702;23.178;2023-08-06T02:25:57;92653.66;;;18.12;100.00
11011;BME280;5558;42.702;23.178;2023-08-06T02:28:25;92663.31;;;17.93;100.00
11011;BME280;5558;42.702;23.178;2023-08-06T02:30:52;92668.88;;;17.76;100.00
11011;BME280;5558;42.702;23.178;2023-08-06T02:33:19;92658.06;;;17.84;100.00
11011;BME280;5558;42.702;23.178;2023-08-06T02:35:45;92648.72;;;17.90;100.00
11011;BME280;5558;42.702;23.178;2023-08-06T02:38:12;92634.44;;;17.98;100.00
11011;BME280;5558;42.702;23.178;2023-08-06T02:40:43;92636.44;;;18.13;100.00
11011;BME280;5558;42.702;23.178;2023-08-06T02:43:10;92640.69;;;18.14;100.00
11011;BME280;5558;42.702;23.178;2023-08-06T02:45:38;92640.13;;;18.09;100.00
11011;BME280;5558;42.702;23.178;2023-08-06T02:48:05;92648.06;;;17.49;100.00
11011;BME280;5558;42.702;23.178;2023-08-06T02:50:37;92699.34;;;17.18;100.00
11011;BME280;5558;42.702;23.178;2023-08-06T02:53:04;92729.06;;;17.17;100.00
11011;BME280;5558;42.702;23.178;2023-08-06T02:55:31;92726.66;;;17.24;100.00
11011;BME280;5558;42.702;23.178;2023-08-06T02:57:59;92731.47;;;17.30;100.00
11011;BME280;5558;42.702;23.178;2023-08-06T03:00:26;92732.19;;;17.39;100.00
11011;BME280;5558;42.702;23.178;2023-08-06T03:02:54;92712.47;;;17.44;100.00
11011;BME280;5558;42.702;23.178;2023-08-06T03:05:20;92690.25;;;17.52;100.00
11011;BME280;5558;42.702;23.178;2023-08-06T03:07:47;92670.16;;;17.46;100.00
11011;BME280;5558;42.702;23.178;2023-08-06T03:10:14;92674.53;;;17.30;100.00
11011;BME280;5558;42.702;23.178;2023-08-06T03:12:41;92738.53;;;17.35;100.00
11011;BME280;5558;42.702;23.178;2023-08-06T03:15:08;92766.75;;;17.44;100.00
11011;BME280;5558;42.702;23.178;2023-08-06T03:17:35;92717.63;;;17.49;100.00
11011;BME280;5558;42.702;23.178;2023-08-06T03:20:04;92705.56;;;17.43;100.00
11011;BME280;5558;42.702;23.178;2023-08-06T03:22:31;92733.88;;;17.44;100.00
11011;BME280;5558;42.702;23.178;2023-08-06T03:24:58;92719.94;;;17.38;100.00
11011;BME280;5558;42.702;23.178;2023-08-06T03:27:24;92726.00;;;17.47;100.00
11011;BME280;5558;42.702;23.178;2023-08-06T03:29:51;92731.72;;;17.58;100.00
11011;BME280;5558;42.702;23.178;2023-08-06T03:32:18;92730.97;;;17.69;100.00
11011;BME280;5558;42.702;23.178;2023-08-06T03:34:44;92730.34;;;17.84;100.00
11011;BME280;5558;42.702;23.178;2023-08-06T03:37:12;92716.66;;;17.98;100.00
11011;BME280;5558;42.702;23.178;2023-08-06T03:39:40;92710.88;;;18.08;100.00
11011;BME280;5558;42.702;23.178;2023-08-06T03:42:06;92700.06;;;18.16;100.00
11011;BME280;5558;42.702;23.178;2023-08-06T03:44:33;92691.38;;;18.32;100.00
11011;BME280;5558;42.702;23.178;2023-08-06T03:47:00;92648.69;;;17.78;100.00
11011;BME280;5558;42.702;23.178;2023-08-06T03:49:26;92661.31;;;18.02;100.00
11011;BME280;5558;42.702;23.178;2023-08-06T03:51:53;92674.47;;;17.95;100.00
11011;BME280;5558;42.702;23.178;2023-08-06T03:54:21;92690.75;;;17.78;100.00
11011;BME280;5558;42.702;23.178;2023-08-06T03:56:47;92717.25;;;17.71;100.00
11011;BME280;5558;42.702;23.178;2023-08-06T03:59:14;92736.38;;;17.81;100.00
11011;BME280;5558;42.702;23.178;2023-08-06T04:01:41;92730.84;;;18.10;100.00
11011;BME280;5558;42.702;23.178;2023-08-06T04:04:07;92718.56;;;18.21;100.00
11011;BME280;5558;42.702;23.178;2023-08-06T04:06:34;92727.13;;;18.48;100.00
11011;BME280;5558;42.702;23.178;2023-08-06T04:09:01;92713.72;;;18.48;100.00
11011;BME280;5558;42.702;23.178;2023-08-06T04:11:29;92704.44;;;18.45;100.00
11011;BME280;5558;42.702;23.178;2023-08-06T04:13:56;92704.13;;;18.47;100.00
11011;BME280;5558;42.702;23.178;2023-08-06T04:16:22;92690.38;;;18.60;100.00
11011;BME280;5558;42.702;23.178;2023-08-06T04:18:51;92692.97;;;18.45;100.00
11011;BME280;5558;42.702;23.178;2023-08-06T04:21:18;92695.72;;;18.24;100.00
11011;BME280;5558;42.702;23.178;2023-08-06T04:23:45;92687.94;;;18.43;100.00
11011;BME280;5558;42.702;23.178;2023-08-06T04:26:12;92676.88;;;18.57;100.00
11011;BME280;5558;42.702;23.178;2023-08-06T04:28:40;92682.44;;;18.64;100.00
11011;BME280;5558;42.702;23.178;2023-08-06T04:31:06;92672.84;;;18.63;100.00
11011;BME280;5558;42.702;23.178;2023-08-06T04:33:33;92666.69;;;18.62;100.00
11011;BME280;5558;42.702;23.178;2023-08-06T04:36:00;92660.19;;;18.75;100.00
11011;BME280;5558;42.702;23.178;2023-08-06T04:38:27;92662.75;;;18.84;100.00
11011;BME280;5558;42.702;23.178;2023-08-06T04:40:53;92637.50;;;18.73;100.00
11011;BME280;5558;42.702;23.178;2023-08-06T04:43:20;92643.97;;;18.84;100.00
11011;BME280;5558;42.702;23.178;2023-08-06T04:45:48;92638.50;;;18.80;100.00
11011;BME280;5558;42.702;23.178;2023-08-06T04:48:15;92629.03;;;18.71;100.00
11011;BME280;5558;42.702;23.178;2023-08-06T04:50:46;92653.94;;;18.71;100.00
11011;BME280;5558;42.702;23.178;2023-08-06T04:53:13;92648.78;;;18.78;100.00
11011;BME280;5558;42.702;23.178;2023-08-06T04:55:41;92651.44;;;18.90;100.00
11011;BME280;5558;42.702;23.178;2023-08-06T04:58:08;92626.06;;;18.88;100.00
11011;BME280;5558;42.702;23.178;2023-08-06T05:00:35;92604.88;;;18.83;100.00
11011;BME280;5558;42.702;23.178;2023-08-06T05:03:04;92611.59;;;18.77;100.00
11011;BME280;5558;42.702;23.178;2023-08-06T05:05:31;92605.78;;;18.75;100.00
11011;BME280;5558;42.702;23.178;2023-08-06T05:07:58;92578.22;;;18.62;100.00
11011;BME280;5558;42.702;23.178;2023-08-06T05:10:25;92602.53;;;18.81;100.00
11011;BME280;5558;42.702;23.178;2023-08-06T05:12:52;92590.53;;;18.91;100.00
11011;BME280;5558;42.702;23.178;2023-08-06T05:15:19;92593.91;;;19.43;100.00
11011;BME280;5558;42.702;23.178;2023-08-06T05:17:45;92557.28;;;20.47;100.00
11011;BME280;5558;42.702;23.178;2023-08-06T05:20:13;92526.53;;;21.89;100.00
11011;BME280;5558;42.702;23.178;2023-08-06T05:22:41;92518.56;;;23.91;100.00
11011;BME280;5558;42.702;23.178;2023-08-06T05:25:08;92527.69;;;26.02;100.00
11011;BME280;5558;42.702;23.178;2023-08-06T05:27:34;92518.81;;;28.10;83.99
11011;BME280;5558;42.702;23.178;2023-08-06T05:30:01;92530.84;;;29.95;66.13
11011;BME280;5558;42.702;23.178;2023-08-06T05:32:28;92529.16;;;31.59;56.16
11011;BME280;5558;42.702;23.178;2023-08-06T05:34:55;92525.53;;;32.97;48.90
11011;BME280;5558;42.702;23.178;2023-08-06T05:37:23;92517.72;;;33.94;44.15
11011;BME280;5558;42.702;23.178;2023-08-06T05:39:49;92516.13;;;34.94;41.52
11011;BME280;5558;42.702;23.178;2023-08-06T05:42:16;92520.28;;;36.06;38.54
11011;BME280;5558;42.702;23.178;2023-08-06T05:44:43;92519.44;;;35.88;38.24
11011;BME280;5558;42.702;23.178;2023-08-06T05:47:10;92522.25;;;35.97;37.42
11011;BME280;5558;42.702;23.178;2023-08-06T05:49:36;92521.34;;;35.35;38.13
11011;BME280;5558;42.702;23.178;2023-08-06T05:52:04;92521.84;;;33.74;40.71
11011;BME280;5558;42.702;23.178;2023-08-06T05:54:35;92524.38;;;31.43;45.93
11011;BME280;5558;42.702;23.178;2023-08-06T05:57:01;92526.69;;;29.86;51.91
11011;BME280;5558;42.702;23.178;2023-08-06T05:59:28;92522.97;;;29.40;53.67
11011;BME280;5558;42.702;23.178;2023-08-06T06:01:55;92522.28;;;28.65;56.81
11011;BME280;5558;42.702;23.178;2023-08-06T06:04:22;92521.34;;;28.79;56.17
11011;BME280;5558;42.702;23.178;2023-08-06T06:06:48;92526.06;;;29.08;56.80
11011;BME280;5558;42.702;23.178;2023-08-06T06:09:15;92540.19;;;30.47;53.01
11011;BME280;5558;42.702;23.178;2023-08-06T06:11:43;92541.47;;;31.28;46.94
11011;BME280;5558;42.702;23.178;2023-08-06T06:14:10;92555.06;;;31.90;44.97
11011;BME280;5558;42.702;23.178;2023-08-06T06:16:36;92554.94;;;33.25;42.76
11011;BME280;5558;42.702;23.178;2023-08-06T06:19:03;92568.19;;;34.51;40.34
11011;BME280;5558;42.702;23.178;2023-08-06T06:21:30;92571.34;;;34.87;39.52
11011;BME280;5558;42.702;23.178;2023-08-06T06:23:56;92567.25;;;32.89;40.57
11011;BME280;5558;42.702;23.178;2023-08-06T06:26:23;92563.66;;;29.27;49.32
11011;BME280;5558;42.702;23.178;2023-08-06T06:28:51;92564.06;;;28.89;52.10
11011;BME280;5558;42.702;23.178;2023-08-06T06:31:18;92571.03;;;29.30;49.91
11011;BME280;5558;42.702;23.178;2023-08-06T06:33:44;92581.53;;;30.49;48.00
11011;BME280;5558;42.702;23.178;2023-08-06T06:36:11;92595.47;;;32.38;44.46
11011;BME280;5558;42.702;23.178;2023-08-06T06:38:38;92586.59;;;31.39;45.22
11011;BME280;5558;42.702;23.178;2023-08-06T06:41:05;92551.84;;;30.24;46.72
11011;BME280;5558;42.702;23.178;2023-08-06T06:43:32;92587.38;;;29.30;49.73
11011;BME280;5558;42.702;23.178;2023-08-06T06:46:00;92597.44;;;28.01;56.68
11011;BME280;5558;42.702;23.178;2023-08-06T06:48:28;92588.16;;;27.81;59.12
11011;BME280;5558;42.702;23.178;2023-08-06T06:50:56;92598.22;;;26.90;61.71
11011;BME280;5558;42.702;23.178;2023-08-06T06:53:23;92594.28;;;27.12;63.12
11011;BME280;5558;42.702;23.178;2023-08-06T06:55:52;92597.59;;;27.58;60.30
11011;BME280;5558;42.702;23.178;2023-08-06T06:58:19;92592.31;;;29.05;52.38
11011;BME280;5558;42.702;23.178;2023-08-06T07:00:46;92593.03;;;30.37;48.69
11011;BME280;5558;42.702;23.178;2023-08-06T07:03:14;92599.91;;;30.94;43.49
11011;BME280;5558;42.702;23.178;2023-08-06T07:05:42;92614.03;;;31.75;42.49
11011;BME280;5558;42.702;23.178;2023-08-06T07:08:08;92621.13;;;32.63;40.43
11011;BME280;5558;42.702;23.178;2023-08-06T07:10:35;92618.97;;;33.35;39.03
11011;BME280;5558;42.702;23.178;2023-08-06T07:13:02;92630.31;;;33.21;37.95
11011;BME280;5558;42.702;23.178;2023-08-06T07:15:28;92624.91;;;33.33;38.62
11011;BME280;5558;42.702;23.178;2023-08-06T07:17:55;92628.59;;;32.95;37.52
11011;BME280;5558;42.702;23.178;2023-08-06T07:20:23;92633.06;;;33.21;38.32
11011;BME280;5558;42.702;23.178;2023-08-06T07:22:50;92645.03;;;33.27;36.95
11011;BME280;5558;42.702;23.178;2023-08-06T07:25:16;92643.25;;;33.20;38.17
11011;BME280;5558;42.702;23.178;2023-08-06T07:27:43;92637.47;;;32.15;39.32
11011;BME280;5558;42.702;23.178;2023-08-06T07:30:10;92634.25;;;31.19;40.29
11011;BME280;5558;42.702;23.178;2023-08-06T07:32:37;92634.25;;;30.16;41.41
11011;BME280;5558;42.702;23.178;2023-08-06T07:35:04;92633.78;;;28.83;45.27
11011;BME280;5558;42.702;23.178;2023-08-06T07:37:34;92638.31;;;28.52;46.94
11011;BME280;5558;42.702;23.178;2023-08-06T07:40:01;92631.31;;;27.82;49.07
11011;BME280;5558;42.702;23.178;2023-08-06T07:42:29;92625.69;;;27.20;51.78
11011;BME280;5558;42.702;23.178;2023-08-06T07:44:58;92622.28;;;26.78;56.16
11011;BME280;5558;42.702;23.178;2023-08-06T07:47:25;92631.19;;;26.89;56.04
11011;BME280;5558;42.702;23.178;2023-08-06T07:49:52;92627.63;;;27.37;56.72
11011;BME280;5558;42.702;23.178;2023-08-06T07:52:19;92633.63;;;27.87;54.24
11011;BME280;5558;42.702;23.178;2023-08-06T07:54:47;92625.91;;;28.40;48.88
11011;BME280;5558;42.702;23.178;2023-08-06T07:57:13;92625.69;;;28.72;48.66
11011;BME280;5558;42.702;23.178;2023-08-06T07:59:40;92626.72;;;28.89;48.21
11011;BME280;5558;42.702;23.178;2023-08-06T08:02:07;92628.19;;;28.49;48.06
11011;BME280;5558;42.702;23.178;2023-08-06T08:04:34;92619.91;;;28.66;49.25
11011;BME280;5558;42.702;23.178;2023-08-06T08:07:00;92618.56;;;28.37;50.57
11011;BME280;5558;42.702;23.178;2023-08-06T08:09:27;92620.91;;;27.67;52.60
11011;BME280;5558;42.702;23.178;2023-08-06T08:11:56;92574.03;;;27.27;53.18
11011;BME280;5558;42.702;23.178;2023-08-06T08:14:23;92612.91;;;27.14;53.49
11011;BME280;5558;42.702;23.178;2023-08-06T08:16:49;92613.56;;;27.53;51.12
11011;BME280;5558;42.702;23.178;2023-08-06T08:19:16;92606.25;;;27.43;49.50
11011;BME280;5558;42.702;23.178;2023-08-06T08:21:43;92606.28;;;27.11;49.07
11011;BME280;5558;42.702;23.178;2023-08-06T08:24:09;92609.78;;;27.29;53.99
11011;BME280;5558;42.702;23.178;2023-08-06T08:26:36;92610.91;;;27.39;54.18
11011;BME280;5558;42.702;23.178;2023-08-06T08:29:04;92608.16;;;27.46;55.95
11011;BME280;5558;42.702;23.178;2023-08-06T08:31:31;92609.25;;;27.66;51.49
11011;BME280;5558;42.702;23.178;2023-08-06T08:34:04;92613.06;;;27.76;52.30
11011;BME280;5558;42.702;23.178;2023-08-06T08:36:30;92610.16;;;27.21;53.99
11011;BME280;5558;42.702;23.178;2023-08-06T08:38:57;92608.28;;;26.93;58.09
11011;BME280;5558;42.702;23.178;2023-08-06T08:41:24;92604.44;;;26.48;56.95
11011;BME280;5558;42.702;23.178;2023-08-06T08:43:51;92614.91;;;26.32;56.14
11011;BME280;5558;42.702;23.178;2023-08-06T08:46:20;92603.28;;;26.35;57.33
11011;BME280;5558;42.702;23.178;2023-08-06T08:48:47;92603.66;;;26.09;59.08
11011;BME280;5558;42.702;23.178;2023-08-06T08:51:15;92597.38;;;25.74;54.77
11011;BME280;5558;42.702;23.178;2023-08-06T08:53:44;92593.13;;;25.83;54.42
11011;BME280;5558;42.702;23.178;2023-08-06T08:56:12;92592.75;;;25.99;54.73
11011;BME280;5558;42.702;23.178;2023-08-06T08:58:39;92592.44;;;26.14;57.12
11011;BME280;5558;42.702;23.178;2023-08-06T09:01:07;92587.69;;;25.80;61.16
11011;BME280;5558;42.702;23.178;2023-08-06T09:03:36;92586.47;;;25.53;63.67
11011;BME280;5558;42.702;23.178;2023-08-06T09:06:04;92579.84;;;25.43;57.96
11011;BME280;5558;42.702;23.178;2023-08-06T09:08:34;92577.91;;;25.40;61.48
11011;BME280;5558;42.702;23.178;2023-08-06T09:11:02;92590.13;;;25.06;60.66
11011;BME280;5558;42.702;23.178;2023-08-06T09:13:30;92551.16;;;24.60;57.21
11011;BME280;5558;42.702;23.178;2023-08-06T09:15:57;92583.19;;;25.12;61.41
11011;BME280;5558;42.702;23.178;2023-08-06T09:18:28;92582.88;;;25.35;56.12
11011;BME280;5558;42.702;23.178;2023-08-06T09:20:57;92583.28;;;25.33;55.41
11011;BME280;5558;42.702;23.178;2023-08-06T09:23:28;92576.63;;;25.16;60.01
11011;BME280;5558;42.702;23.178;2023-08-06T09:25:56;92578.09;;;25.00;59.57
11011;BME280;5558;42.702;23.178;2023-08-06T09:28:23;92571.06;;;24.88;61.46
11011;BME280;5558;42.702;23.178;2023-08-06T09:30:52;92581.22;;;25.05;62.72
11011;BME280;5558;42.702;23.178;2023-08-06T09:33:22;92574.59;;;24.96;59.51
11011;BME280;5558;42.702;23.178;2023-08-06T09:35:49;92575.47;;;25.17;55.36
11011;BME280;5558;42.702;23.178;2023-08-06T09:38:17;92547.19;;;25.04;55.45
11011;BME280;5558;42.702;23.178;2023-08-06T09:40:44;92569.41;;;25.42;55.00
11011;BME280;5558;42.702;23.178;2023-08-06T09:43:11;92561.66;;;25.44;55.40
11011;BME280;5558;42.702;23.178;2023-08-06T09:45:38;92560.13;;;25.46;54.04
11011;BME280;5558;42.702;23.178;2023-08-06T09:48:06;92558.59;;;25.63;53.68
11011;BME280;5558;42.702;23.178;2023-08-06T09:50:34;92567.16;;;25.96;53.71
11011;BME280;5558;42.702;23.178;2023-08-06T09:53:02;92569.53;;;26.58;55.45
11011;BME280;5558;42.702;23.178;2023-08-06T09:55:32;92565.66;;;26.76;48.92
11011;BME280;5558;42.702;23.178;2023-08-06T09:57:59;92568.75;;;26.82;50.43
11011;BME280;5558;42.702;23.178;2023-08-06T10:00:26;92573.78;;;26.90;47.18
11011;BME280;5558;42.702;23.178;2023-08-06T10:02:54;92574.56;;;26.80;49.09
11011;BME280;5558;42.702;23.178;2023-08-06T10:05:26;92583.06;;;26.96;50.08
11011;BME280;5558;42.702;23.178;2023-08-06T10:07:53;92570.66;;;26.92;49.38
11011;BME280;5558;42.702;23.178;2023-08-06T10:10:22;92583.06;;;26.96;48.10
11011;BME280;5558;42.702;23.178;2023-08-06T10:12:52;92579.63;;;26.78;48.62
11011;BME280;5558;42.702;23.178;2023-08-06T10:15:24;92576.13;;;26.46;49.50
11011;BME280;5558;42.702;23.178;2023-08-06T10:17:54;92550.56;;;26.15;49.95
11011;BME280;5558;42.702;23.178;2023-08-06T10:20:21;92582.34;;;26.18;50.48
11011;BME280;5558;42.702;23.178;2023-08-06T10:23:00;92579.19;;;25.99;51.03
11011;BME280;5558;42.702;23.178;2023-08-06T10:25:30;92579.19;;;25.88;51.92
11011;BME280;5558;42.702;23.178;2023-08-06T10:27:58;92584.97;;;25.73;53.95
11011;BME280;5558;42.702;23.178;2023-08-06T10:30:26;92588.88;;;25.82;51.08
11011;BME280;5558;42.702;23.178;2023-08-06T10:32:54;92597.03;;;26.03;54.75
11011;BME280;5558;42.702;23.178;2023-08-06T10:35:29;92575.69;;;25.95;54.30
11011;BME280;5558;42.702;23.178;2023-08-06T10:38:03;92590.88;;;26.24;53.29
11011;BME280;5558;42.702;23.178;2023-08-06T10:40:31;92597.06;;;26.38;53.97
11011;BME280;5558;42.702;23.178;2023-08-06T10:43:03;92602.88;;;26.65;52.51
11011;BME280;5558;42.702;23.178;2023-08-06T10:45:34;92611.38;;;26.99;50.83
11011;BME280;5558;42.702;23.178;2023-08-06T10:48:01;92591.97;;;27.00;50.66
11011;BME280;5558;42.702;23.178;2023-08-06T10:50:28;92609.47;;;26.96;51.72
11011;BME280;5558;42.702;23.178;2023-08-06T10:52:56;92606.75;;;26.61;59.75
11011;BME280;5558;42.702;23.178;2023-08-06T10:55:24;92609.84;;;26.10;61.37
11011;BME280;5558;42.702;23.178;2023-08-06T10:57:52;92624.44;;;25.67;60.38
11011;BME280;5558;42.702;23.178;2023-08-06T11:00:21;92632.09;;;25.37;61.07
11011;BME280;5558;42.702;23.178;2023-08-06T11:02:49;92626.81;;;25.00;60.09
11011;BME280;5558;42.702;23.178;2023-08-06T11:05:16;92626.75;;;24.86;59.60
11011;BME280;5558;42.702;23.178;2023-08-06T11:07:43;92621.63;;;24.70;65.21
11011;BME280;5558;42.702;23.178;2023-08-06T11:10:12;92617.59;;;24.50;75.96
11011;BME280;5558;42.702;23.178;2023-08-06T11:12:39;92612.88;;;24.40;94.23
11011;BME280;5558;42.702;23.178;2023-08-06T11:15:07;92618.94;;;24.74;92.28
11011;BME280;5558;42.702;23.178;2023-08-06T11:17:36;92614.16;;;25.14;89.21
11011;BME280;5558;42.702;23.178;2023-08-06T11:20:04;92619.72;;;25.46;79.35
11011;BME280;5558;42.702;23.178;2023-08-06T11:22:32;92614.75;;;25.62;76.93
11011;BME280;5558;42.702;23.178;2023-08-06T11:24:58;92619.44;;;25.72;72.44
11011;BME280;5558;42.702;23.178;2023-08-06T11:27:26;92616.38;;;25.98;68.86
11011;BME280;5558;42.702;23.178;2023-08-06T11:29:54;92623.44;;;26.24;59.38
11011;BME280;5558;42.702;23.178;2023-08-06T11:32:21;92620.31;;;26.57;60.26
11011;BME280;5558;42.702;23.178;2023-08-06T11:34:49;92619.94;;;26.80;62.56
11011;BME280;5558;42.702;23.178;2023-08-06T11:37:16;92610.97;;;27.11;61.48
11011;BME280;5558;42.702;23.178;2023-08-06T11:39:46;92618.19;;;27.63;55.43
11011;BME280;5558;42.702;23.178;2023-08-06T11:42:14;92615.09;;;27.57;53.40
11011;BME280;5558;42.702;23.178;2023-08-06T11:44:41;92608.13;;;27.53;52.90
11011;BME280;5558;42.702;23.178;2023-08-06T11:47:13;92618.41;;;28.00;50.64
11011;BME280;5558;42.702;23.178;2023-08-06T11:49:41;92602.00;;;28.14;50.00
11011;BME280;5558;42.702;23.178;2023-08-06T11:52:18;92607.91;;;28.06;46.65
11011;BME280;5558;42.702;23.178;2023-08-06T11:55:00;92600.84;;;28.12;46.53
11011;BME280;5558;42.702;23.178;2023-08-06T11:57:29;92613.81;;;27.90;47.63
11011;BME280;5558;42.702;23.178;2023-08-06T11:59:58;92609.25;;;27.63;48.06
11011;BME280;5558;42.702;23.178;2023-08-06T12:02:31;92602.63;;;27.67;47.92
11011;BME280;5558;42.702;23.178;2023-08-06T12:05:04;92600.78;;;27.50;47.96
11011;BME280;5558;42.702;23.178;2023-08-06T12:07:33;92590.06;;;26.80;48.38
11011;BME280;5558;42.702;23.178;2023-08-06T12:10:03;92592.78;;;26.90;48.12
11011;BME280;5558;42.702;23.178;2023-08-06T12:12:30;92590.38;;;27.20;48.54
11011;BME280;5558;42.702;23.178;2023-08-06T12:14:57;92591.03;;;27.52;47.63
11011;BME280;5558;42.702;23.178;2023-08-06T12:17:24;92591.03;;;27.56;45.16
11011;BME280;5558;42.702;23.178;2023-08-06T12:19:51;92584.91;;;27.27;44.83
11011;BME280;5558;42.702;23.178;2023-08-06T12:22:18;92581.81;;;27.22;45.41
11011;BME280;5558;42.702;23.178;2023-08-06T12:24:46;92584.22;;;27.06;45.30
11011;BME280;5558;42.702;23.178;2023-08-06T12:27:13;92574.97;;;26.82;48.33
11011;BME280;5558;42.702;23.178;2023-08-06T12:29:41;92590.47;;;26.82;47.32
11011;BME280;5558;42.702;23.178;2023-08-06T12:32:08;92591.63;;;26.84;46.79
11011;BME280;5558;42.702;23.178;2023-08-06T12:34:34;92593.19;;;26.75;48.49
11011;BME280;5558;42.702;23.178;2023-08-06T12:37:02;92588.16;;;26.41;49.63
11011;BME280;5558;42.702;23.178;2023-08-06T12:39:29;92589.31;;;26.33;51.13
11011;BME280;5558;42.702;23.178;2023-08-06T12:41:58;92588.94;;;26.24;52.20
11011;BME280;5558;42.702;23.178;2023-08-06T12:44:25;92596.66;;;26.12;52.85
11011;BME280;5558;42.702;23.178;2023-08-06T12:46:51;92590.41;;;25.87;54.36
11011;BME280;5558;42.702;23.178;2023-08-06T12:49:18;92594.28;;;25.79;55.16
11011;BME280;5558;42.702;23.178;2023-08-06T12:51:46;92590.00;;;25.78;53.67
11011;BME280;5558;42.702;23.178;2023-08-06T12:54:13;92594.25;;;25.65;54.00
11011;BME280;5558;42.702;23.178;2023-08-06T12:56:40;92557.69;;;25.23;54.62